createdAt,value
2022-08-25T00:01:49.993Z,89.76
2022-08-25T00:04:20.647Z,90.31
2022-08-25T00:06:53.622Z,89.58
2022-08-25T00:09:27.269Z,90.05
2022-08-25T00:11:57.886Z,89.76
2022-08-25T00:14:37.961Z,90.29
2022-08-25T00:17:08.745Z,89.76
2022-08-25T00:19:40.292Z,90.02
2022-08-25T00:22:10.450Z,88.87
2022-08-25T00:24:40.790Z,88.58
2022-08-25T00:27:14.161Z,89.03
2022-08-25T00:29:45.250Z,89.07
2022-08-25T00:32:15.240Z,89.21
2022-08-25T00:34:45.798Z,88.90
2022-08-25T00:37:16.982Z,88.94
2022-08-25T00:39:47.942Z,88.68
2022-08-25T00:42:18.031Z,86.60
2022-08-25T00:44:48.073Z,85.54
2022-08-25T00:47:18.788Z,86.36
2022-08-25T00:49:56.797Z,87.03
2022-08-25T00:52:35.297Z,86.75
2022-08-25T00:55:20.201Z,85.81
2022-08-25T00:58:01.862Z,85.34
2022-08-25T01:00:43.131Z,84.96
2022-08-25T01:03:13.948Z,85.24
2022-08-25T01:05:46.758Z,85.72
2022-08-25T01:08:19.581Z,86.30
2022-08-25T01:10:51.503Z,86.15
2022-08-25T01:13:50.753Z,86.60
2022-08-25T01:16:20.814Z,87.38
2022-08-25T01:18:57.499Z,87.31
2022-08-25T01:21:29.936Z,87.61
2022-08-25T01:24:02.261Z,88.05
2022-08-25T01:26:35.141Z,88.81
2022-08-25T01:29:26.486Z,89.11
2022-08-25T01:32:03.701Z,90.10
2022-08-25T01:34:36.423Z,90.56
2022-08-25T01:37:07.049Z,90.65
2022-08-25T01:39:40.850Z,90.39
2022-08-25T01:42:44.728Z,90.55
2022-08-25T01:45:16.171Z,91.51
2022-08-25T01:47:46.273Z,91.33
2022-08-25T01:50:16.499Z,91.34
2022-08-25T01:52:53.397Z,91.65
2022-08-25T01:55:25.031Z,92.27
2022-08-25T01:57:55.097Z,92.56
2022-08-25T02:00:25.355Z,93.15
2022-08-25T02:02:55.928Z,93.14
2022-08-25T02:05:26.029Z,93.14
2022-08-25T02:07:59.244Z,93.33
2022-08-25T02:10:29.400Z,93.52
2022-08-25T02:13:01.310Z,92.99
2022-08-25T02:15:31.576Z,93.20
2022-08-25T02:18:01.754Z,93.61
2022-08-25T02:20:31.530Z,93.17
2022-08-25T02:23:01.284Z,93.39
2022-08-25T02:25:31.649Z,93.51
2022-08-25T02:28:02.071Z,93.04
2022-08-25T02:30:32.249Z,92.66
2022-08-25T02:33:02.037Z,93.06
2022-08-25T02:35:32.333Z,93.13
2022-08-25T02:38:02.105Z,93.19
2022-08-25T02:40:32.018Z,93.55
2022-08-25T02:43:01.869Z,93.57
2022-08-25T02:45:32.354Z,93.71
2022-08-25T02:48:02.343Z,93.89
2022-08-25T02:50:32.294Z,93.91
2022-08-25T02:53:02.011Z,93.62
2022-08-25T02:55:31.757Z,93.81
2022-08-25T02:58:05.020Z,94.11
2022-08-25T03:00:35.043Z,94.67
2022-08-25T03:03:05.886Z,94.43
2022-08-25T03:05:35.820Z,94.76
2022-08-25T03:08:07.268Z,94.84
2022-08-25T03:10:37.675Z,95.03
2022-08-25T03:13:07.460Z,95.24
2022-08-25T03:15:38.957Z,94.99
2022-08-25T03:18:09.169Z,95.50
2022-08-25T03:20:40.547Z,95.46
2022-08-25T03:23:10.783Z,95.35
2022-08-25T03:26:00.781Z,95.58
2022-08-25T03:28:34.215Z,95.49
2022-08-25T03:31:04.651Z,95.31
2022-08-25T03:33:34.737Z,95.57
2022-08-25T03:36:04.974Z,95.85
2022-08-25T03:38:34.933Z,95.73
2022-08-25T03:41:24.213Z,95.83
2022-08-25T03:43:59.190Z,96.38
2022-08-25T03:46:31.830Z,96.03
2022-08-25T03:49:05.304Z,96.02
2022-08-25T03:51:38.079Z,96.30
2022-08-25T03:54:10.578Z,96.76
2022-08-25T03:56:41.150Z,96.73
2022-08-25T03:59:11.573Z,96.63
2022-08-25T04:01:43.445Z,96.57
2022-08-25T04:04:16.501Z,96.91
2022-08-25T04:06:46.793Z,96.93
2022-08-25T04:09:16.539Z,96.94
2022-08-25T04:11:46.340Z,96.75
2022-08-25T04:14:19.358Z,97.04
2022-08-25T04:16:49.144Z,97.08
2022-08-25T04:19:18.953Z,97.18
2022-08-25T04:21:48.766Z,97.22
2022-08-25T04:24:18.836Z,97.56
2022-08-25T04:26:51.958Z,97.55
2022-08-25T04:29:25.049Z,97.69
2022-08-25T04:31:56.438Z,97.59
2022-08-25T04:34:30.428Z,97.85
2022-08-25T04:37:03.899Z,97.55
2022-08-25T04:39:34.308Z,97.75
2022-08-25T04:42:04.969Z,97.65
2022-08-25T04:44:35.272Z,97.66
2022-08-25T04:47:05.303Z,97.76
2022-08-25T04:49:35.023Z,97.85
2022-08-25T04:52:04.940Z,97.98
2022-08-25T04:54:43.388Z,97.90
2022-08-25T04:57:13.190Z,97.92
2022-08-25T04:59:42.874Z,98.01
2022-08-25T05:02:12.741Z,97.97
2022-08-25T05:04:42.684Z,98.02
2022-08-25T05:07:12.840Z,97.99
2022-08-25T05:09:42.990Z,97.87
2022-08-25T05:12:12.926Z,97.89
2022-08-25T05:14:42.961Z,97.97
2022-08-25T05:17:12.664Z,98.17
2022-08-25T05:19:41.920Z,97.38
2022-08-25T05:22:11.569Z,98.13
2022-08-25T05:24:42.116Z,98.28
2022-08-25T05:27:12.583Z,98.23
2022-08-25T05:29:42.359Z,98.31
2022-08-25T05:32:12.158Z,98.42
2022-08-25T05:34:41.924Z,98.38
2022-08-25T05:37:12.251Z,97.67
2022-08-25T05:39:41.995Z,98.22
2022-08-25T05:42:12.183Z,97.75
2022-08-25T05:44:41.782Z,98.30
2022-08-25T05:47:11.023Z,97.49
2022-08-25T05:49:40.663Z,98.24
2022-08-25T05:52:09.898Z,97.32
2022-08-25T05:54:41.006Z,98.28
2022-08-25T05:57:11.241Z,98.23
2022-08-25T05:59:41.120Z,98.37
2022-08-25T06:02:28.783Z,98.42
2022-08-25T06:05:00.123Z,98.63
2022-08-25T06:07:31.124Z,98.69
2022-08-25T06:10:01.231Z,98.48
2022-08-25T06:12:33.665Z,98.59
2022-08-25T06:15:04.883Z,98.69
2022-08-25T06:17:36.523Z,98.70
2022-08-25T06:20:07.959Z,98.73
2022-08-25T06:22:38.842Z,98.54
2022-08-25T06:25:10.782Z,98.77
2022-08-25T06:27:41.392Z,98.53
2022-08-25T06:30:13.853Z,98.60
2022-08-25T06:32:48.286Z,98.68
2022-08-25T06:35:21.425Z,98.79
2022-08-25T06:37:51.472Z,98.83
2022-08-25T06:40:21.392Z,98.77
2022-08-25T06:42:51.503Z,99.00
2022-08-25T06:45:20.815Z,98.39
2022-08-25T06:47:50.630Z,98.88
2022-08-25T06:50:19.955Z,98.08
2022-08-25T06:52:49.953Z,98.78
2022-08-25T06:55:19.465Z,98.16
2022-08-25T06:57:49.662Z,98.61
2022-08-25T07:00:19.499Z,98.93
2022-08-25T07:02:49.569Z,99.08
2022-08-25T07:05:33.540Z,99.09
2022-08-25T07:08:04.319Z,99.12
2022-08-25T07:10:37.058Z,99.06
2022-08-25T07:13:07.642Z,99.37
2022-08-25T07:15:41.224Z,99.45
2022-08-25T07:18:13.722Z,99.33
2022-08-25T07:20:44.197Z,99.35
2022-08-25T07:23:14.025Z,99.28
2022-08-25T07:25:43.728Z,99.26
2022-08-25T07:28:13.269Z,98.65
2022-08-25T07:30:43.104Z,99.30
2022-08-25T07:33:13.282Z,99.22
2022-08-25T07:35:44.580Z,99.27
2022-08-25T07:38:19.211Z,98.81
2022-08-25T07:40:57.062Z,99.25
2022-08-25T07:43:27.095Z,99.30
2022-08-25T07:45:57.094Z,99.31
2022-08-25T07:48:26.947Z,99.73
2022-08-25T07:50:57.564Z,99.53
2022-08-25T07:53:27.398Z,99.44
2022-08-25T07:55:57.311Z,99.56
2022-08-25T07:58:27.174Z,99.54
2022-08-25T08:00:56.989Z,99.61
2022-08-25T08:03:44.735Z,99.62
2022-08-25T08:06:18.054Z,99.76
2022-08-25T08:08:50.430Z,99.86
2022-08-25T08:11:35.010Z,99.73
2022-08-25T08:14:06.639Z,99.71
2022-08-25T08:16:36.047Z,99.13
2022-08-25T08:19:06.120Z,99.67
2022-08-25T08:21:38.173Z,99.85
2022-08-25T08:24:19.786Z,99.76
2022-08-25T08:26:59.392Z,99.70
2022-08-25T08:29:29.661Z,99.70
2022-08-25T08:32:01.766Z,99.69
2022-08-25T08:34:33.695Z,99.86
2022-08-25T08:37:03.921Z,99.92
2022-08-25T08:39:34.385Z,99.86
2022-08-25T08:42:45.389Z,99.97
2022-08-25T08:45:35.551Z,99.75
2022-08-25T08:48:36.445Z,99.99
2022-08-25T08:51:32.954Z,99.76
2022-08-25T08:54:15.592Z,99.92
2022-08-25T08:56:52.251Z,99.99
2022-08-25T08:59:31.201Z,99.99
2022-08-25T09:02:04.214Z,99.99
2022-08-25T09:04:46.732Z,99.99
2022-08-25T09:07:21.232Z,99.92
2022-08-25T09:09:53.401Z,99.97
2022-08-25T09:12:48.205Z,99.91
2022-08-25T09:16:31.575Z,99.91
2022-08-25T09:19:25.840Z,99.99
2022-08-25T09:22:36.838Z,99.92
2022-08-25T09:25:53.187Z,99.99
2022-08-25T09:28:43.044Z,99.99
2022-08-25T09:31:29.142Z,99.99
2022-08-25T09:34:03.163Z,99.85
2022-08-25T09:36:37.787Z,99.91
2022-08-25T09:39:09.900Z,99.91
2022-08-25T09:42:06.489Z,99.95
2022-08-25T09:44:45.355Z,99.99
2022-08-25T09:47:29.172Z,99.99
2022-08-25T09:50:04.623Z,99.99
2022-08-25T09:52:37.655Z,99.99
2022-08-25T09:55:07.551Z,99.99
2022-08-25T09:57:45.924Z,99.56
2022-08-25T10:00:23.356Z,99.84
2022-08-25T10:03:05.959Z,99.85
2022-08-25T10:05:58.639Z,99.79
2022-08-25T10:08:54.248Z,99.70
2022-08-25T10:11:39.483Z,99.67
2022-08-25T10:14:20.908Z,99.88
2022-08-25T10:16:51.527Z,99.64
2022-08-25T10:19:24.633Z,99.62
2022-08-25T10:22:11.263Z,99.52
2022-08-25T10:24:44.134Z,99.30
2022-08-25T10:27:52.067Z,99.03
2022-08-25T10:30:37.179Z,98.78
2022-08-25T10:33:23.966Z,98.51
2022-08-25T10:36:00.368Z,98.15
2022-08-25T10:38:45.159Z,98.05
2022-08-25T10:41:35.722Z,98.00
2022-08-25T10:44:45.503Z,97.83
2022-08-25T10:47:46.639Z,97.64
2022-08-25T10:50:24.973Z,97.30
2022-08-25T10:53:09.839Z,96.92
2022-08-25T10:56:14.732Z,96.93
2022-08-25T10:59:18.427Z,96.40
2022-08-25T11:02:17.632Z,95.97
2022-08-25T11:05:07.891Z,95.41
2022-08-25T11:07:43.895Z,95.79
2022-08-25T11:10:27.610Z,92.20
2022-08-25T11:13:01.339Z,86.18
2022-08-25T11:16:00.189Z,80.49
2022-08-25T11:18:42.934Z,74.40
2022-08-25T11:21:20.533Z,71.62
2022-08-25T11:24:04.379Z,68.75
2022-08-25T11:26:38.613Z,65.94
2022-08-25T11:29:20.167Z,65.89
2022-08-25T11:31:55.709Z,63.82
2022-08-25T11:34:27.561Z,64.26
2022-08-25T11:37:29.222Z,64.69
2022-08-25T11:40:12.798Z,62.44
2022-08-25T11:42:48.713Z,62.01
2022-08-25T11:45:42.585Z,62.40
2022-08-25T11:48:36.151Z,62.12
2022-08-25T11:51:42.028Z,61.39
2022-08-25T11:54:26.560Z,57.51
2022-08-25T11:57:05.430Z,57.44
2022-08-25T11:59:58.355Z,59.70
2022-08-25T12:02:42.575Z,59.56
2022-08-25T12:05:12.706Z,57.93
2022-08-25T12:08:12.622Z,58.93
2022-08-25T12:10:54.696Z,60.80
2022-08-25T12:14:21.620Z,59.38
2022-08-25T12:17:01.806Z,56.56
2022-08-25T12:19:38.102Z,56.75
2022-08-25T12:22:11.205Z,57.91
2022-08-25T12:24:48.186Z,56.74
2022-08-25T12:27:27.399Z,58.59
2022-08-25T12:30:18.501Z,58.21
2022-08-25T12:33:14.818Z,56.99
2022-08-25T12:36:11.190Z,61.48
2022-08-25T12:38:52.161Z,59.48
2022-08-25T12:41:33.755Z,56.02
2022-08-25T12:44:42.818Z,59.96
2022-08-25T12:47:28.309Z,58.50
2022-08-25T12:50:26.109Z,57.57
2022-08-25T12:52:58.672Z,55.60
2022-08-25T12:55:29.997Z,55.98
2022-08-25T12:58:02.533Z,57.02
2022-08-25T13:00:47.424Z,58.67
2022-08-25T13:03:52.071Z,60.31
2022-08-25T13:06:28.186Z,59.09
2022-08-25T13:09:08.298Z,56.83
2022-08-25T13:11:58.691Z,59.34
2022-08-25T13:14:44.611Z,58.32
2022-08-25T13:17:28.352Z,57.71
2022-08-25T13:20:18.666Z,60.74
2022-08-25T13:22:56.689Z,58.44
2022-08-25T13:25:32.251Z,55.95
2022-08-25T13:28:10.900Z,58.03
2022-08-25T13:30:41.586Z,56.80
2022-08-25T13:33:22.824Z,54.75
2022-08-25T13:36:14.532Z,54.30
2022-08-25T13:38:46.703Z,52.89
2022-08-25T13:41:29.260Z,59.47
2022-08-25T13:44:02.051Z,53.99
2022-08-25T13:46:35.503Z,56.93
2022-08-25T13:49:08.674Z,51.15
2022-08-25T13:51:43.612Z,51.60
2022-08-25T13:54:28.894Z,54.23
2022-08-25T13:57:18.873Z,56.05
2022-08-25T13:59:57.331Z,49.37
2022-08-25T14:02:53.566Z,52.23
2022-08-25T14:05:36.076Z,54.30
2022-08-25T14:08:16.018Z,51.25
2022-08-25T14:11:14.577Z,50.45
2022-08-25T14:13:46.714Z,49.24
2022-08-25T14:16:25.440Z,51.31
2022-08-25T14:18:59.545Z,56.09
2022-08-25T14:21:31.977Z,50.86
2022-08-25T14:24:04.972Z,52.76
2022-08-25T14:26:34.829Z,50.46
2022-08-25T14:29:05.480Z,48.95
2022-08-25T14:31:43.735Z,49.29
2022-08-25T14:34:20.245Z,48.75
2022-08-25T14:36:51.155Z,52.41
2022-08-25T14:39:21.383Z,48.62
2022-08-25T14:41:53.301Z,45.14
2022-08-25T14:44:24.334Z,44.38
2022-08-25T14:46:58.908Z,49.33
2022-08-25T14:49:35.054Z,46.02
2022-08-25T14:52:31.575Z,47.03
2022-08-25T14:55:01.505Z,45.03
2022-08-25T14:57:31.359Z,43.75
2022-08-25T15:00:01.739Z,44.47
2022-08-25T15:02:45.050Z,45.38
2022-08-25T15:05:21.999Z,42.20
2022-08-25T15:08:12.459Z,43.95
2022-08-25T15:10:43.418Z,45.32
2022-08-25T15:13:14.454Z,44.91
2022-08-25T15:15:52.620Z,44.25
2022-08-25T15:18:23.844Z,43.37
2022-08-25T15:20:55.421Z,46.39
2022-08-25T15:23:27.496Z,47.00
2022-08-25T15:25:58.003Z,45.95
2022-08-25T15:28:27.718Z,46.11
2022-08-25T15:30:57.841Z,42.92
2022-08-25T15:33:27.960Z,44.80
2022-08-25T15:35:58.403Z,45.90
2022-08-25T15:38:28.341Z,45.15
2022-08-25T15:40:58.068Z,44.58
2022-08-25T15:43:28.248Z,48.83
2022-08-25T15:45:58.566Z,44.54
2022-08-25T15:48:28.750Z,44.05
2022-08-25T15:51:02.729Z,44.17
2022-08-25T15:53:35.341Z,43.32
2022-08-25T15:56:07.582Z,41.83
2022-08-25T15:58:37.564Z,42.13
2022-08-25T16:01:19.345Z,48.59
2022-08-25T16:03:49.909Z,44.85
2022-08-25T16:06:20.469Z,41.87
2022-08-25T16:08:50.321Z,43.62
2022-08-25T16:11:21.328Z,41.11
2022-08-25T16:13:52.642Z,40.64
2022-08-25T16:16:24.983Z,38.08
2022-08-25T16:18:55.642Z,38.83
2022-08-25T16:21:32.154Z,37.08
2022-08-25T16:24:07.395Z,36.68
2022-08-25T16:26:48.154Z,34.43
2022-08-25T16:29:20.419Z,35.95
2022-08-25T16:31:53.249Z,37.25
2022-08-25T16:34:28.514Z,39.01
2022-08-25T16:36:59.482Z,36.93
2022-08-25T16:39:29.291Z,43.53
2022-08-25T16:41:59.478Z,39.14
2022-08-25T16:44:29.297Z,34.54
2022-08-25T16:46:59.569Z,36.75
2022-08-25T16:49:30.022Z,34.32
2022-08-25T16:51:59.829Z,34.83
2022-08-25T16:54:48.180Z,36.95
2022-08-25T16:57:18.459Z,35.35
2022-08-25T16:59:48.246Z,33.00
2022-08-25T17:02:17.992Z,36.73
2022-08-25T17:04:51.752Z,34.53
2022-08-25T17:07:24.021Z,34.28
2022-08-25T17:09:54.371Z,37.39
2022-08-25T17:12:24.435Z,36.14
2022-08-25T17:14:55.686Z,37.07
2022-08-25T17:17:27.180Z,34.49
2022-08-25T17:19:57.128Z,35.95
2022-08-25T17:22:28.206Z,37.10
2022-08-25T17:25:01.021Z,35.76
2022-08-25T17:27:31.464Z,34.90
2022-08-25T17:30:01.294Z,34.87
2022-08-25T17:32:31.060Z,34.68
2022-08-25T17:35:00.831Z,35.54
2022-08-25T17:37:34.904Z,33.93
2022-08-25T17:40:07.776Z,33.02
2022-08-25T17:42:41.823Z,36.40
2022-08-25T17:45:11.989Z,33.41
2022-08-25T17:47:41.757Z,32.76
2022-08-25T17:50:12.359Z,34.94
2022-08-25T17:52:43.060Z,32.80
2022-08-25T17:55:14.171Z,33.31
2022-08-25T17:57:45.652Z,31.79
2022-08-25T18:00:17.244Z,32.12
2022-08-25T18:02:48.318Z,38.36
2022-08-25T18:05:19.368Z,29.45
2022-08-25T18:07:51.493Z,30.47
2022-08-25T18:10:22.381Z,31.10
2022-08-25T18:12:54.253Z,32.03
2022-08-25T18:15:24.356Z,32.30
2022-08-25T18:17:55.209Z,30.88
2022-08-25T18:20:27.472Z,29.89
2022-08-25T18:23:00.640Z,29.30
2022-08-25T18:25:31.209Z,30.79
2022-08-25T18:28:01.433Z,27.79
2022-08-25T18:30:31.280Z,27.93
2022-08-25T18:33:01.016Z,32.22
2022-08-25T18:35:32.389Z,31.67
2022-08-25T18:38:21.230Z,33.03
2022-08-25T18:40:57.924Z,31.77
2022-08-25T18:43:31.906Z,30.07
2022-08-25T18:46:05.727Z,26.10
2022-08-25T18:48:35.924Z,29.97
2022-08-25T18:51:10.388Z,26.99
2022-08-25T18:53:50.383Z,26.87
2022-08-25T18:56:21.667Z,28.70
2022-08-25T18:58:51.851Z,28.31
2022-08-25T19:01:21.857Z,27.38
2022-08-25T19:03:52.260Z,31.21
2022-08-25T19:06:22.073Z,31.30
2022-08-25T19:08:52.123Z,33.27
2022-08-25T19:11:22.602Z,35.02
2022-08-25T19:13:53.601Z,36.41
2022-08-25T19:16:40.733Z,40.62
2022-08-25T19:19:14.701Z,47.40
2022-08-25T19:21:45.426Z,48.87
2022-08-25T19:24:18.865Z,49.70
2022-08-25T19:26:51.457Z,51.51
2022-08-25T19:29:25.420Z,53.07
2022-08-25T19:31:55.776Z,53.45
2022-08-25T19:34:30.535Z,52.00
2022-08-25T19:37:04.641Z,53.26
2022-08-25T19:39:39.008Z,54.99
2022-08-25T19:42:37.160Z,55.08
2022-08-25T19:45:00.717Z,54.86
2022-08-25T19:47:30.835Z,55.10
2022-08-25T19:50:01.781Z,54.05
2022-08-25T19:52:31.564Z,57.08
2022-08-25T19:55:04.004Z,55.82
2022-08-25T19:57:43.147Z,55.90
2022-08-25T20:00:18.294Z,55.35
2022-08-25T20:02:48.938Z,55.39
2022-08-25T20:05:23.856Z,56.90
2022-08-25T20:07:56.283Z,56.95
2022-08-25T20:10:29.088Z,58.34
2022-08-25T20:13:01.973Z,57.73
2022-08-25T20:15:34.482Z,59.36
2022-08-25T20:18:08.961Z,59.81
2022-08-25T20:20:38.990Z,59.98
2022-08-25T20:23:31.850Z,59.98
2022-08-25T20:26:02.159Z,61.17
2022-08-25T20:28:31.924Z,61.17
2022-08-25T20:31:03.940Z,62.47
2022-08-25T20:33:35.069Z,63.50
2022-08-25T20:36:05.976Z,63.92
2022-08-25T20:38:37.161Z,64.85
2022-08-25T20:41:11.236Z,65.54
2022-08-25T20:43:44.000Z,66.79
2022-08-25T20:46:14.494Z,67.16
2022-08-25T20:48:45.484Z,67.25
2022-08-25T20:51:15.350Z,67.86
2022-08-25T20:53:49.356Z,68.66
2022-08-25T20:56:21.394Z,68.95
2022-08-25T20:58:51.671Z,70.05
2022-08-25T21:01:24.965Z,69.59
2022-08-25T21:03:55.091Z,69.85
2022-08-25T21:06:24.771Z,70.15
2022-08-25T21:08:55.054Z,71.55
2022-08-25T21:11:27.416Z,71.52
2022-08-25T21:14:00.245Z,70.19
2022-08-25T21:16:31.589Z,71.27
2022-08-25T21:19:01.390Z,71.03
2022-08-25T21:21:31.704Z,72.64
2022-08-25T21:24:02.530Z,71.07
2022-08-25T21:26:33.616Z,70.40
2022-08-25T21:29:05.148Z,71.48
2022-08-25T21:31:37.438Z,72.11
2022-08-25T21:34:10.416Z,72.29
2022-08-25T21:36:43.204Z,75.16
2022-08-25T21:39:14.253Z,76.73
2022-08-25T21:41:45.828Z,76.88
2022-08-25T21:44:16.194Z,76.56
2022-08-25T21:46:54.427Z,77.73
2022-08-25T21:49:26.464Z,78.12
2022-08-25T21:52:00.267Z,79.56
2022-08-25T21:54:31.754Z,79.96
2022-08-25T21:57:05.282Z,80.88
2022-08-25T21:59:39.283Z,81.27
2022-08-25T22:02:14.129Z,82.15
2022-08-25T22:04:46.786Z,82.57
2022-08-25T22:07:18.258Z,83.25
2022-08-25T22:09:48.257Z,83.26
2022-08-25T22:12:20.811Z,83.14
2022-08-25T22:14:50.783Z,83.27
2022-08-25T22:17:21.014Z,83.18
2022-08-25T22:19:54.474Z,83.37
2022-08-25T22:22:24.377Z,83.62
2022-08-25T22:24:57.046Z,83.16
2022-08-25T22:27:27.286Z,83.91
2022-08-25T22:29:57.140Z,83.32
2022-08-25T22:32:27.973Z,82.90
2022-08-25T22:34:58.137Z,82.21
2022-08-25T22:37:30.451Z,82.45
2022-08-25T22:40:00.906Z,82.25
2022-08-25T22:42:31.670Z,82.59
2022-08-25T22:45:02.285Z,83.82
2022-08-25T22:47:33.880Z,82.07
2022-08-25T22:50:04.256Z,81.76
2022-08-25T22:52:35.137Z,83.11
2022-08-25T22:55:05.651Z,82.95
2022-08-25T22:57:42.453Z,81.77
2022-08-25T23:00:15.728Z,82.57
2022-08-25T23:02:46.405Z,82.74
2022-08-25T23:05:16.728Z,82.05
2022-08-25T23:07:46.764Z,81.71
2022-08-25T23:10:16.549Z,80.78
2022-08-25T23:12:46.278Z,81.17
2022-08-25T23:15:16.299Z,80.32
2022-08-25T23:17:47.323Z,81.18
2022-08-25T23:20:36.736Z,80.92
2022-08-25T23:23:15.200Z,80.48
2022-08-25T23:25:45.017Z,80.90
2022-08-25T23:28:15.074Z,81.50
2022-08-25T23:30:45.067Z,80.59
2022-08-25T23:33:28.125Z,80.69
2022-08-25T23:36:05.343Z,82.04
2022-08-25T23:38:35.998Z,82.08
2022-08-25T23:41:18.800Z,81.63
2022-08-25T23:43:50.377Z,83.61
2022-08-25T23:46:24.304Z,82.01
2022-08-25T23:48:57.125Z,81.50
2022-08-25T23:51:37.387Z,81.75
2022-08-25T23:54:12.197Z,82.26
2022-08-25T23:56:51.466Z,82.15
2022-08-25T23:59:24.276Z,83.13
